sensor_id;sensor_type;location;lat;lon;timestamp;temperature;humidity
73133;DHT22;61320;52.008;4.530;2022-07-19T16:06:45;39.06;25.02
73133;DHT22;61320;52.008;4.530;2022-07-19T16:09:10;39.02;23.82
73133;DHT22;61320;52.008;4.530;2022-07-19T16:11:36;38.93;23.78
73133;DHT22;61320;52.008;4.530;2022-07-19T16:14:02;38.87;23.95
73133;DHT22;61320;52.008;4.530;2022-07-19T16:16:27;38.86;24.93
73133;DHT22;61320;52.008;4.530;2022-07-19T16:18:54;38.79;25.61
73133;DHT22;61320;52.008;4.530;2022-07-19T16:21:20;38.75;25.71
73133;DHT22;61320;52.008;4.530;2022-07-19T16:23:45;38.75;26.09
73133;DHT22;61320;52.008;4.530;2022-07-19T16:26:11;38.66;25.55
73133;DHT22;61320;52.008;4.530;2022-07-19T16:28:37;38.65;25.66
73133;DHT22;61320;52.008;4.530;2022-07-19T16:31:03;38.56;26.35
73133;DHT22;61320;52.008;4.530;2022-07-19T16:33:29;38.49;26.99
73133;DHT22;61320;52.008;4.530;2022-07-19T16:35:54;38.49;27.42
73133;DHT22;61320;52.008;4.530;2022-07-19T16:38:20;38.42;27.33
73133;DHT22;61320;52.008;4.530;2022-07-19T16:40:45;38.35;27.31
73133;DHT22;61320;52.008;4.530;2022-07-19T16:43:11;38.27;27.84
73133;DHT22;61320;52.008;4.530;2022-07-19T16:45:38;38.17;27.90
73133;DHT22;61320;52.008;4.530;2022-07-19T16:48:04;38.05;28.79
73133;DHT22;61320;52.008;4.530;2022-07-19T16:50:30;37.94;27.84
73133;DHT22;61320;52.008;4.530;2022-07-19T16:52:55;37.83;29.66
73133;DHT22;61320;52.008;4.530;2022-07-19T16:55:21;37.74;28.58
73133;DHT22;61320;52.008;4.530;2022-07-19T16:57:46;37.60;28.88
73133;DHT22;61320;52.008;4.530;2022-07-19T17:00:12;37.50;28.88
73133;DHT22;61320;52.008;4.530;2022-07-19T17:02:37;37.37;29.66
73133;DHT22;61320;52.008;4.530;2022-07-19T17:05:05;37.26;29.74
73133;DHT22;61320;52.008;4.530;2022-07-19T17:07:31;37.15;29.93
73133;DHT22;61320;52.008;4.530;2022-07-19T17:09:57;37.02;29.69
73133;DHT22;61320;52.008;4.530;2022-07-19T17:12:22;36.87;30.31
73133;DHT22;61320;52.008;4.530;2022-07-19T17:14:47;36.78;30.59
73133;DHT22;61320;52.008;4.530;2022-07-19T17:17:13;36.70;31.34
73133;DHT22;61320;52.008;4.530;2022-07-19T17:19:38;36.57;31.27
73133;DHT22;61320;52.008;4.530;2022-07-19T17:22:04;36.44;31.13
73133;DHT22;61320;52.008;4.530;2022-07-19T17:24:29;36.37;30.98
73133;DHT22;61320;52.008;4.530;2022-07-19T17:26:55;36.30;31.93
73133;DHT22;61320;52.008;4.530;2022-07-19T17:29:23;36.20;32.17
73133;DHT22;61320;52.008;4.530;2022-07-19T17:31:49;36.07;33.05
73133;DHT22;61320;52.008;4.530;2022-07-19T17:34:15;36.00;31.45
73133;DHT22;61320;52.008;4.530;2022-07-19T17:36:40;35.92;32.55
73133;DHT22;61320;52.008;4.530;2022-07-19T17:39:06;35.81;31.95
73133;DHT22;61320;52.008;4.530;2022-07-19T17:41:33;35.76;32.60
73133;DHT22;61320;52.008;4.530;2022-07-19T17:43:59;35.69;33.47
73133;DHT22;61320;52.008;4.530;2022-07-19T17:46:24;35.58;31.51
73133;DHT22;61320;52.008;4.530;2022-07-19T17:48:50;35.54;31.59
73133;DHT22;61320;52.008;4.530;2022-07-19T17:51:15;35.46;32.58
73133;DHT22;61320;52.008;4.530;2022-07-19T17:53:41;35.38;32.03
73133;DHT22;61320;52.008;4.530;2022-07-19T17:56:06;35.34;34.30
73133;DHT22;61320;52.008;4.530;2022-07-19T17:58:32;35.25;33.53
73133;DHT22;61320;52.008;4.530;2022-07-19T18:00:58;35.18;34.73
73133;DHT22;61320;52.008;4.530;2022-07-19T18:03:23;35.15;34.38
73133;DHT22;61320;52.008;4.530;2022-07-19T18:05:49;35.10;33.20
73133;DHT22;61320;52.008;4.530;2022-07-19T18:08:14;35.00;33.87
73133;DHT22;61320;52.008;4.530;2022-07-19T18:10:40;34.95;34.31
73133;DHT22;61320;52.008;4.530;2022-07-19T18:13:05;34.90;35.47
73133;DHT22;61320;52.008;4.530;2022-07-19T18:15:31;34.86;35.03
73133;DHT22;61320;52.008;4.530;2022-07-19T18:17:57;34.76;36.03
73133;DHT22;61320;52.008;4.530;2022-07-19T18:20:23;34.66;34.59
73133;DHT22;61320;52.008;4.530;2022-07-19T18:22:48;34.59;35.25
73133;DHT22;61320;52.008;4.530;2022-07-19T18:25:14;34.52;35.23
73133;DHT22;61320;52.008;4.530;2022-07-19T18:27:40;34.43;36.05
73133;DHT22;61320;52.008;4.530;2022-07-19T18:30:06;34.38;35.71
73133;DHT22;61320;52.008;4.530;2022-07-19T18:32:32;34.31;35.73
73133;DHT22;61320;52.008;4.530;2022-07-19T18:34:58;34.26;36.79
73133;DHT22;61320;52.008;4.530;2022-07-19T18:37:23;34.18;36.06
73133;DHT22;61320;52.008;4.530;2022-07-19T18:39:49;34.10;35.93
73133;DHT22;61320;52.008;4.530;2022-07-19T18:42:15;34.02;36.81
73133;DHT22;61320;52.008;4.530;2022-07-19T18:44:41;33.92;36.83
73133;DHT22;61320;52.008;4.530;2022-07-19T18:47:07;33.84;37.15
73133;DHT22;61320;52.008;4.530;2022-07-19T18:49:33;33.72;35.65
73133;DHT22;61320;52.008;4.530;2022-07-19T18:52:00;33.67;35.24
73133;DHT22;61320;52.008;4.530;2022-07-19T18:54:25;33.60;35.68
73133;DHT22;61320;52.008;4.530;2022-07-19T18:56:51;33.54;35.67
73133;DHT22;61320;52.008;4.530;2022-07-19T18:59:16;33.44;36.80
73133;DHT22;61320;52.008;4.530;2022-07-19T19:01:42;33.35;35.31
73133;DHT22;61320;52.008;4.530;2022-07-19T19:04:07;33.27;35.56
73133;DHT22;61320;52.008;4.530;2022-07-19T19:06:33;33.24;35.01
73133;DHT22;61320;52.008;4.530;2022-07-19T19:09:03;33.17;35.53
73133;DHT22;61320;52.008;4.530;2022-07-19T19:11:29;33.06;35.22
73133;DHT22;61320;52.008;4.530;2022-07-19T19:13:55;32.98;34.80
73133;DHT22;61320;52.008;4.530;2022-07-19T19:16:21;32.93;35.87
73133;DHT22;61320;52.008;4.530;2022-07-19T19:18:46;32.84;34.51
73133;DHT22;61320;52.008;4.530;2022-07-19T19:21:14;32.78;35.16
73133;DHT22;61320;52.008;4.530;2022-07-19T19:23:40;32.71;34.97
73133;DHT22;61320;52.008;4.530;2022-07-19T19:26:05;32.63;35.16
73133;DHT22;61320;52.008;4.530;2022-07-19T19:28:31;32.56;34.51
73133;DHT22;61320;52.008;4.530;2022-07-19T19:30:57;32.51;34.59
73133;DHT22;61320;52.008;4.530;2022-07-19T19:33:22;32.46;35.31
73133;DHT22;61320;52.008;4.530;2022-07-19T19:35:49;32.39;34.95
73133;DHT22;61320;52.008;4.530;2022-07-19T19:38:15;32.34;35.12
73133;DHT22;61320;52.008;4.530;2022-07-19T19:40:40;32.27;35.68
73133;DHT22;61320;52.008;4.530;2022-07-19T19:43:06;32.18;35.48
73133;DHT22;61320;52.008;4.530;2022-07-19T19:45:31;32.11;35.48
73133;DHT22;61320;52.008;4.530;2022-07-19T19:47:57;32.04;36.06
73133;DHT22;61320;52.008;4.530;2022-07-19T19:50:23;31.97;36.05
73133;DHT22;61320;52.008;4.530;2022-07-19T19:52:48;31.90;35.86
73133;DHT22;61320;52.008;4.530;2022-07-19T19:55:14;31.80;35.87
73133;DHT22;61320;52.008;4.530;2022-07-19T19:57:41;31.69;36.43
73133;DHT22;61320;52.008;4.530;2022-07-19T20:00:08;31.62;35.99
73133;DHT22;61320;52.008;4.530;2022-07-19T20:02:34;31.46;36.50
73133;DHT22;61320;52.008;4.530;2022-07-19T20:04:59;31.40;36.23
73133;DHT22;61320;52.008;4.530;2022-07-19T20:07:25;31.30;36.90
73133;DHT22;61320;52.008;4.530;2022-07-19T20:09:51;31.22;36.73
73133;DHT22;61320;52.008;4.530;2022-07-19T20:12:16;31.15;36.27
73133;DHT22;61320;52.008;4.530;2022-07-19T20:14:42;31.09;37.04
73133;DHT22;61320;52.008;4.530;2022-07-19T20:17:07;30.99;37.09
73133;DHT22;61320;52.008;4.530;2022-07-19T20:19:33;30.88;37.36
73133;DHT22;61320;52.008;4.530;2022-07-19T20:22:00;30.79;37.70
73133;DHT22;61320;52.008;4.530;2022-07-19T20:24:25;30.68;38.05
73133;DHT22;61320;52.008;4.530;2022-07-19T20:26:50;30.63;37.80
73133;DHT22;61320;52.008;4.530;2022-07-19T20:29:16;30.51;37.54
73133;DHT22;61320;52.008;4.530;2022-07-19T20:31:41;30.44;38.07
73133;DHT22;61320;52.008;4.530;2022-07-19T20:34:07;30.37;37.74
73133;DHT22;61320;52.008;4.530;2022-07-19T20:36:33;30.27;39.14
73133;DHT22;61320;52.008;4.530;2022-07-19T20:38:58;30.21;37.53
73133;DHT22;61320;52.008;4.530;2022-07-19T20:41:24;30.16;37.71
73133;DHT22;61320;52.008;4.530;2022-07-19T20:43:50;30.10;38.09
73133;DHT22;61320;52.008;4.530;2022-07-19T20:46:16;30.05;37.97
73133;DHT22;61320;52.008;4.530;2022-07-19T20:48:42;30.02;38.42
73133;DHT22;61320;52.008;4.530;2022-07-19T20:51:07;29.98;38.43
73133;DHT22;61320;52.008;4.530;2022-07-19T20:53:33;29.90;38.62
73133;DHT22;61320;52.008;4.530;2022-07-19T20:55:58;29.85;38.58
73133;DHT22;61320;52.008;4.530;2022-07-19T20:58:24;29.82;38.74
73133;DHT22;61320;52.008;4.530;2022-07-19T21:00:50;29.78;39.06
73133;DHT22;61320;52.008;4.530;2022-07-19T21:03:15;29.73;38.04
73133;DHT22;61320;52.008;4.530;2022-07-19T21:05:41;29.69;38.25
73133;DHT22;61320;52.008;4.530;2022-07-19T21:08:06;29.62;39.14
73133;DHT22;61320;52.008;4.530;2022-07-19T21:10:32;29.59;38.68
73133;DHT22;61320;52.008;4.530;2022-07-19T21:12:58;29.55;37.95
73133;DHT22;61320;52.008;4.530;2022-07-19T21:15:23;29.51;39.21
73133;DHT22;61320;52.008;4.530;2022-07-19T21:17:49;29.47;38.17
73133;DHT22;61320;52.008;4.530;2022-07-19T21:20:16;29.42;37.75
73133;DHT22;61320;52.008;4.530;2022-07-19T21:22:42;29.45;37.73
73133;DHT22;61320;52.008;4.530;2022-07-19T21:25:09;29.45;38.39
73133;DHT22;61320;52.008;4.530;2022-07-19T21:27:35;29.44;38.96
73133;DHT22;61320;52.008;4.530;2022-07-19T21:30:01;29.39;38.68
73133;DHT22;61320;52.008;4.530;2022-07-19T21:32:26;29.37;38.54
73133;DHT22;61320;52.008;4.530;2022-07-19T21:34:52;29.34;38.41
73133;DHT22;61320;52.008;4.530;2022-07-19T21:37:19;29.34;37.61
73133;DHT22;61320;52.008;4.530;2022-07-19T21:39:44;29.28;38.51
73133;DHT22;61320;52.008;4.530;2022-07-19T21:42:10;29.25;38.09
73133;DHT22;61320;52.008;4.530;2022-07-19T21:44:35;29.24;38.29
73133;DHT22;61320;52.008;4.530;2022-07-19T21:47:01;29.18;38.27
73133;DHT22;61320;52.008;4.530;2022-07-19T21:49:30;29.14;38.01
73133;DHT22;61320;52.008;4.530;2022-07-19T21:51:55;29.13;37.69
73133;DHT22;61320;52.008;4.530;2022-07-19T21:54:21;29.11;38.39
73133;DHT22;61320;52.008;4.530;2022-07-19T21:56:46;29.10;37.99
73133;DHT22;61320;52.008;4.530;2022-07-19T21:59:11;29.08;37.70
73133;DHT22;61320;52.008;4.530;2022-07-19T22:01:37;29.07;38.30
73133;DHT22;61320;52.008;4.530;2022-07-19T22:04:02;29.04;38.35
73133;DHT22;61320;52.008;4.530;2022-07-19T22:06:30;29.02;37.91
73133;DHT22;61320;52.008;4.530;2022-07-19T22:08:57;29.00;38.51
73133;DHT22;61320;52.008;4.530;2022-07-19T22:11:22;28.99;39.25
73133;DHT22;61320;52.008;4.530;2022-07-19T22:13:48;28.96;38.17
73133;DHT22;61320;52.008;4.530;2022-07-19T22:16:17;28.93;38.01
73133;DHT22;61320;52.008;4.530;2022-07-19T22:18:43;28.89;38.18
73133;DHT22;61320;52.008;4.530;2022-07-19T22:21:09;28.87;38.15
73133;DHT22;61320;52.008;4.530;2022-07-19T22:23:34;28.86;38.16
73133;DHT22;61320;52.008;4.530;2022-07-19T22:26:00;28.80;38.51
73133;DHT22;61320;52.008;4.530;2022-07-19T22:28:26;28.72;39.50
73133;DHT22;61320;52.008;4.530;2022-07-19T22:30:51;28.67;39.97
73133;DHT22;61320;52.008;4.530;2022-07-19T22:33:18;28.56;39.16
73133;DHT22;61320;52.008;4.530;2022-07-19T22:35:44;28.52;38.94
73133;DHT22;61320;52.008;4.530;2022-07-19T22:38:10;28.52;39.69
73133;DHT22;61320;52.008;4.530;2022-07-19T22:40:35;28.48;38.02
73133;DHT22;61320;52.008;4.530;2022-07-19T22:43:01;28.46;39.43
73133;DHT22;61320;52.008;4.530;2022-07-19T22:45:26;28.46;38.45
73133;DHT22;61320;52.008;4.530;2022-07-19T22:47:53;28.45;39.36
73133;DHT22;61320;52.008;4.530;2022-07-19T22:50:19;28.49;38.13
73133;DHT22;61320;52.008;4.530;2022-07-19T22:52:45;28.44;37.92
73133;DHT22;61320;52.008;4.530;2022-07-19T22:55:10;28.51;36.88
73133;DHT22;61320;52.008;4.530;2022-07-19T22:57:36;28.52;38.79
73133;DHT22;61320;52.008;4.530;2022-07-19T23:00:04;28.49;37.94
73133;DHT22;61320;52.008;4.530;2022-07-19T23:02:30;28.55;38.57
73133;DHT22;61320;52.008;4.530;2022-07-19T23:04:56;28.55;38.00
73133;DHT22;61320;52.008;4.530;2022-07-19T23:07:21;28.53;37.75
73133;DHT22;61320;52.008;4.530;2022-07-19T23:09:46;28.51;37.21
73133;DHT22;61320;52.008;4.530;2022-07-19T23:12:12;28.49;38.52
73133;DHT22;61320;52.008;4.530;2022-07-19T23:14:37;28.46;39.34
73133;DHT22;61320;52.008;4.530;2022-07-19T23:17:03;28.45;38.36
73133;DHT22;61320;52.008;4.530;2022-07-19T23:19:28;28.46;38.93
73133;DHT22;61320;52.008;4.530;2022-07-19T23:21:54;28.45;39.08
73133;DHT22;61320;52.008;4.530;2022-07-19T23:24:19;28.41;38.00
73133;DHT22;61320;52.008;4.530;2022-07-19T23:26:45;28.36;39.46
73133;DHT22;61320;52.008;4.530;2022-07-19T23:29:10;28.31;38.13
73133;DHT22;61320;52.008;4.530;2022-07-19T23:31:35;28.32;37.77
73133;DHT22;61320;52.008;4.530;2022-07-19T23:34:01;28.28;39.10
73133;DHT22;61320;52.008;4.530;2022-07-19T23:36:26;28.25;39.27
73133;DHT22;61320;52.008;4.530;2022-07-19T23:38:52;28.22;39.68
73133;DHT22;61320;52.008;4.530;2022-07-19T23:41:17;28.14;40.00
73133;DHT22;61320;52.008;4.530;2022-07-19T23:43:43;28.11;39.45
73133;DHT22;61320;52.008;4.530;2022-07-19T23:46:08;28.07;40.22
73133;DHT22;61320;52.008;4.530;2022-07-19T23:48:40;28.01;40.35
73133;DHT22;61320;52.008;4.530;2022-07-19T23:51:06;27.97;40.20
73133;DHT22;61320;52.008;4.530;2022-07-19T23:53:32;27.90;39.41
73133;DHT22;61320;52.008;4.530;2022-07-19T23:55:57;27.87;38.82
73133;DHT22;61320;52.008;4.530;2022-07-19T23:58:23;27.70;38.61
